Time;durP1;ratioP1;P1;durP2;ratioP2;P2;SDS_P1;SDS_P2;PMS_P1;PMS_P2;Temp;Humidity;BMP_temperature;BMP_pressure;BME280_temperature;BME280_humidity;BME280_pressure;Samples;Min_cycle;Max_cycle;Signal;HPM_P1;HPM_P2
2023/05/10 00:00:43;;;;;;;21.40;8.02;;;;;;;12.27;100.00;100438.53;5066146;28;20056;-76
2023/05/10 00:03:09;;;;;;;17.13;6.78;;;;;;;12.24;100.00;100431.06;5065512;28;20056;-76
2023/05/10 00:05:36;;;;;;;21.77;7.85;;;;;;;12.24;100.00;100433.84;5062757;28;20048;-76
2023/05/10 00:08:02;;;;;;;16.95;6.72;;;;;;;12.24;100.00;100438.63;5069240;28;20043;-75
2023/05/10 00:10:29;;;;;;;19.60;8.95;;;;;;;12.23;100.00;100432.25;5067892;28;20404;-76
2023/05/10 00:12:55;;;;;;;16.73;7.47;;;;;;;12.27;100.00;100432.19;5065253;28;20072;-76
2023/05/10 00:15:22;;;;;;;18.63;8.30;;;;;;;12.26;100.00;100434.16;5065945;28;20101;-77
2023/05/10 00:17:48;;;;;;;19.73;8.35;;;;;;;12.24;100.00;100427.47;5067809;28;20052;-78
2023/05/10 00:20:15;;;;;;;15.10;6.93;;;;;;;12.25;100.00;100429.81;5066044;28;20067;-77
2023/05/10 00:22:42;;;;;;;14.25;5.97;;;;;;;12.23;100.00;100429.47;5067713;28;20076;-77
2023/05/10 00:25:10;;;;;;;13.60;4.78;;;;;;;12.23;100.00;100439.84;5067319;28;20055;-78
2023/05/10 00:27:36;;;;;;;13.95;4.65;;;;;;;12.22;100.00;100438.25;5067740;28;20072;-76
2023/05/10 00:30:03;;;;;;;14.60;5.38;;;;;;;12.24;100.00;100430.25;5067579;28;20059;-77
2023/05/10 00:32:30;;;;;;;12.98;4.88;;;;;;;12.17;100.00;100434.00;5067439;28;20051;-78
2023/05/10 00:34:57;;;;;;;13.88;5.47;;;;;;;12.15;100.00;100435.66;5067236;28;20054;-77
2023/05/10 00:37:23;;;;;;;12.48;5.20;;;;;;;12.19;100.00;100437.13;5061474;28;20053;-77
2023/05/10 00:39:50;;;;;;;12.77;5.03;;;;;;;12.21;100.00;100431.13;5062730;28;20060;-78
2023/05/10 00:42:16;;;;;;;12.57;5.10;;;;;;;12.18;100.00;100429.22;5068668;28;20041;-77
2023/05/10 00:44:43;;;;;;;15.95;6.05;;;;;;;12.18;100.00;100434.78;5067152;28;20053;-78
2023/05/10 00:47:10;;;;;;;16.33;6.93;;;;;;;12.21;100.00;100431.91;5067529;28;20059;-77
2023/05/10 00:49:36;;;;;;;17.45;6.60;;;;;;;12.17;100.00;100436.81;5071032;28;20513;-78
2023/05/10 00:52:03;;;;;;;16.30;5.15;;;;;;;12.08;100.00;100428.25;5067634;28;20124;-77
2023/05/10 00:54:30;;;;;;;14.80;5.70;;;;;;;12.15;100.00;100427.28;5068671;28;20056;-77
2023/05/10 00:56:57;;;;;;;13.93;5.65;;;;;;;12.14;100.00;100434.88;5071289;28;20388;-76
2023/05/10 00:59:23;;;;;;;15.88;6.18;;;;;;;12.15;100.00;100430.06;5071030;28;20041;-75
2023/05/10 01:01:51;;;;;;;17.30;5.75;;;;;;;12.14;100.00;100428.50;5068799;28;20037;-78
2023/05/10 01:04:19;;;;;;;15.70;6.03;;;;;;;12.16;100.00;100429.63;5071054;28;20091;-77
2023/05/10 01:06:46;;;;;;;17.08;6.60;;;;;;;12.11;100.00;100421.03;5070429;28;20048;-77
2023/05/10 01:12:54;;;;;;;16.65;6.57;;;;;;;12.23;100.00;100435.03;5068427;28;20039;-76
2023/05/10 01:15:21;;;;;;;17.13;6.30;;;;;;;12.18;100.00;100434.78;5067459;28;20044;-76
2023/05/10 01:17:48;;;;;;;16.98;6.50;;;;;;;12.18;100.00;100435.56;5066573;28;20082;-77
2023/05/10 01:20:15;;;;;;;17.33;6.63;;;;;;;12.16;100.00;100435.22;5070437;28;20405;-76
2023/05/10 01:22:42;;;;;;;17.00;6.40;;;;;;;12.20;100.00;100443.50;5078784;28;20513;-76
2023/05/10 01:25:40;;;;;;;13.68;5.13;;;;;;;12.15;100.00;100447.59;5070638;28;20059;-77
2023/05/10 01:28:34;;;;;;;16.60;5.57;;;;;;;12.11;100.00;100446.91;5073925;28;20127;-77
2023/05/10 01:31:04;;;;;;;12.82;4.65;;;;;;;12.01;100.00;100445.13;5067923;28;20041;-77
2023/05/10 01:33:54;;;;;;;13.35;5.82;;;;;;;11.98;100.00;100448.00;5070136;28;20040;-76
2023/05/10 01:36:26;;;;;;;15.73;6.10;;;;;;;12.08;100.00;100458.91;5064711;28;20037;-75
2023/05/10 01:39:02;;;;;;;15.00;6.20;;;;;;;12.08;100.00;100458.91;5068997;28;20102;-77
2023/05/10 01:42:06;;;;;;;16.67;5.88;;;;;;;12.09;100.00;100459.69;5069244;28;20500;-75
2023/05/10 01:44:39;;;;;;;16.58;5.97;;;;;;;12.07;100.00;100454.56;5069864;28;20053;-77
2023/05/10 01:47:32;;;;;;;12.40;4.90;;;;;;;12.07;100.00;100460.13;5061319;28;20040;-77
2023/05/10 01:50:02;;;;;;;18.00;6.47;;;;;;;12.06;100.00;100464.13;5068437;28;20055;-77
2023/05/10 01:52:36;;;;;;;16.50;6.10;;;;;;;12.06;100.00;100466.13;5070141;28;20481;-75
2023/05/10 01:55:07;;;;;;;16.70;6.53;;;;;;;12.06;100.00;100464.13;5066931;28;20494;-75
2023/05/10 01:57:37;;;;;;;18.50;7.03;;;;;;;11.96;100.00;100464.38;5063291;28;20267;-75
2023/05/10 02:00:07;;;;;;;16.60;6.20;;;;;;;11.99;100.00;100467.06;5069473;28;20518;-76
2023/05/10 02:02:37;;;;;;;21.10;6.90;;;;;;;11.95;100.00;100463.59;5077245;28;20048;-76
2023/05/10 02:05:06;;;;;;;18.33;6.90;;;;;;;11.97;100.00;100463.16;5068483;28;20111;-76
2023/05/10 02:07:35;;;;;;;17.65;7.07;;;;;;;11.94;100.00;100464.81;5063902;28;20049;-76
2023/05/10 02:10:04;;;;;;;19.27;8.38;;;;;;;11.95;100.00;100471.19;5068128;28;20109;-75
2023/05/10 02:12:35;;;;;;;20.88;9.10;;;;;;;11.91;100.00;100467.66;5066307;28;20055;-76
2023/05/10 02:15:04;;;;;;;17.77;7.05;;;;;;;11.93;100.00;100474.41;5077503;28;20051;-76
2023/05/10 02:17:32;;;;;;;17.27;6.60;;;;;;;11.86;100.00;100474.56;5068166;28;20056;-75
2023/05/10 02:20:00;;;;;;;16.60;6.35;;;;;;;11.86;100.00;100477.34;5069444;28;20052;-76
2023/05/10 02:22:28;;;;;;;18.02;7.05;;;;;;;11.79;100.00;100485.81;5066952;28;20479;-76
2023/05/10 02:24:59;;;;;;;20.75;6.65;;;;;;;11.80;100.00;100490.19;5069470;28;20052;-76
2023/05/10 02:27:27;;;;;;;18.67;7.80;;;;;;;11.77;100.00;100488.28;5068377;28;20044;-76
2023/05/10 02:29:55;;;;;;;18.05;7.38;;;;;;;11.78;100.00;100487.03;5065403;28;20055;-76
2023/05/10 02:32:24;;;;;;;20.17;8.55;;;;;;;11.72;100.00;100488.00;5068050;28;20040;-76
2023/05/10 02:34:52;;;;;;;21.02;8.55;;;;;;;11.69;100.00;100477.72;5066416;28;20477;-76
2023/05/10 02:37:20;;;;;;;17.63;6.80;;;;;;;11.60;100.00;100489.44;5075995;28;20056;-76
2023/05/10 02:39:49;;;;;;;20.42;7.75;;;;;;;11.60;100.00;100492.22;5068631;28;20059;-75
2023/05/10 02:42:19;;;;;;;17.60;6.68;;;;;;;11.56;100.00;100485.16;5068874;28;20051;-75
2023/05/10 02:44:48;;;;;;;20.00;7.20;;;;;;;11.58;100.00;100489.06;5068054;28;20684;-77
2023/05/10 02:47:15;;;;;;;19.50;7.95;;;;;;;11.59;100.00;100484.28;5068972;28;20090;-76
2023/05/10 02:49:42;;;;;;;18.65;7.53;;;;;;;11.60;100.00;100485.84;5066332;28;20048;-76
2023/05/10 02:52:09;;;;;;;20.75;7.25;;;;;;;11.57;100.00;100489.50;5069853;28;20080;-76
2023/05/10 02:54:45;;;;;;;17.73;7.78;;;;;;;11.52;100.00;100492.78;5068439;28;20545;-76
2023/05/10 02:57:17;;;;;;;20.42;8.85;;;;;;;11.58;100.00;100491.84;5066863;28;20070;-77
2023/05/10 02:59:47;;;;;;;19.13;6.88;;;;;;;11.54;100.00;100496.72;5066204;28;20048;-75
2023/05/10 03:02:14;;;;;;;18.80;7.05;;;;;;;11.47;100.00;100491.28;5075789;28;20041;-76
2023/05/10 03:04:40;;;;;;;20.73;8.80;;;;;;;11.53;100.00;100497.16;5074556;28;20469;-76
2023/05/10 03:07:07;;;;;;;23.67;8.50;;;;;;;11.53;100.00;100488.78;5066716;28;20445;-76
2023/05/10 03:09:34;;;;;;;21.45;8.02;;;;;;;11.54;100.00;100485.59;5067172;28;20581;-76
2023/05/10 03:12:05;;;;;;;23.05;9.15;;;;;;;11.58;100.00;100491.84;5068039;28;20066;-75
2023/05/10 03:14:43;;;;;;;20.15;7.55;;;;;;;11.57;100.00;100493.06;5066682;28;20045;-75
2023/05/10 03:17:30;;;;;;;15.52;6.03;;;;;;;11.43;100.00;100501.72;5063490;28;20055;-74
2023/05/10 03:20:03;;;;;;;22.75;10.02;;;;;;;11.52;100.00;100501.91;5060997;28;20409;-75
2023/05/10 03:22:38;;;;;;;25.15;10.48;;;;;;;11.45;100.00;100502.06;5067923;28;20049;-75
2023/05/10 03:25:06;;;;;;;24.70;10.23;;;;;;;11.48;100.00;100509.56;5068431;28;20071;-78
2023/05/10 03:27:35;;;;;;;21.88;9.30;;;;;;;11.36;100.00;100503.84;5062580;28;20060;-75
2023/05/10 03:30:02;;;;;;;27.90;12.52;;;;;;;11.46;100.00;100505.63;5067654;28;20131;-74
2023/05/10 03:32:30;;;;;;;27.60;12.45;;;;;;;11.45;100.00;100499.28;5073664;28;20048;-75
2023/05/10 03:34:56;;;;;;;25.98;9.98;;;;;;;11.41;100.00;100504.13;5077160;28;20056;-75
2023/05/10 03:37:23;;;;;;;28.33;10.45;;;;;;;11.40;100.00;100510.94;5065738;28;20055;-73
2023/05/10 03:39:49;;;;;;;34.58;12.93;;;;;;;11.44;100.00;100514.41;5069448;28;20048;-74
2023/05/10 03:42:19;;;;;;;28.15;11.48;;;;;;;11.32;100.00;100514.28;5073891;28;20067;-74
2023/05/10 03:44:45;;;;;;;22.77;8.63;;;;;;;11.32;100.00;100517.06;5068529;28;20048;-74
2023/05/10 03:47:12;;;;;;;31.05;12.38;;;;;;;11.37;100.00;100519.34;5066128;28;20063;-75
2023/05/10 03:49:38;;;;;;;31.98;13.55;;;;;;;11.36;100.00;100512.19;5067613;28;20052;-75
2023/05/10 03:52:05;;;;;;;31.95;13.50;;;;;;;11.42;100.00;100516.88;5060132;28;20056;-75
2023/05/10 03:54:32;;;;;;;32.88;13.48;;;;;;;11.41;100.00;100514.50;5067627;28;20060;-78
2023/05/10 03:56:58;;;;;;;33.25;13.15;;;;;;;11.48;100.00;100519.94;5065437;28;20131;-75
2023/05/10 03:59:25;;;;;;;33.20;14.45;;;;;;;11.43;100.00;100529.56;5064388;28;20049;-77
2023/05/10 04:01:51;;;;;;;31.25;12.95;;;;;;;11.41;100.00;100531.22;5067383;28;20058;-76
2023/05/10 04:04:20;;;;;;;29.88;12.73;;;;;;;11.39;100.00;100523.28;5067846;28;20074;-78
2023/05/10 04:06:47;;;;;;;32.65;11.50;;;;;;;11.40;100.00;100526.84;5065317;28;20071;-76
2023/05/10 04:09:13;;;;;;;31.45;12.68;;;;;;;11.42;100.00;100536.34;5067081;28;20052;-77
2023/05/10 04:11:40;;;;;;;31.08;12.73;;;;;;;11.42;100.00;100532.78;5067264;28;20061;-76
2023/05/10 04:14:06;;;;;;;36.55;13.48;;;;;;;11.40;100.00;100529.63;5066921;28;20036;-76
2023/05/10 04:16:33;;;;;;;36.30;14.68;;;;;;;11.42;100.00;100530.78;5066239;28;20059;-75
2023/05/10 04:18:59;;;;;;;39.90;14.65;;;;;;;11.42;100.00;100536.34;5065792;28;20056;-76
2023/05/10 04:21:26;;;;;;;31.60;12.63;;;;;;;11.40;100.00;100530.41;5066699;28;20056;-78
2023/05/10 04:23:53;;;;;;;33.38;13.98;;;;;;;11.41;100.00;100534.75;5066006;28;20054;-77
2023/05/10 04:26:20;;;;;;;39.47;14.75;;;;;;;11.39;100.00;100537.19;5065774;28;20055;-77
2023/05/10 04:28:46;;;;;;;36.58;14.27;;;;;;;11.40;100.00;100532.41;5063981;28;20664;-75
2023/05/10 04:31:13;;;;;;;52.50;22.35;;;;;;;11.54;100.00;100534.91;5063298;28;20164;-77
2023/05/10 04:33:39;;;;;;;38.05;15.15;;;;;;;11.48;100.00;100542.97;5068197;28;20059;-75
2023/05/10 04:36:06;;;;;;;53.78;22.73;;;;;;;11.57;100.00;100540.41;5072870;28;20046;-75
2023/05/10 04:38:33;;;;;;;56.85;25.27;;;;;;;11.55;100.00;100528.91;5066164;28;20163;-77
2023/05/10 04:41:09;;;;;;;56.65;24.85;;;;;;;11.54;100.00;100530.13;5066257;28;20052;-77
2023/05/10 04:43:36;;;;;;;48.10;21.15;;;;;;;11.54;100.00;100544.03;5066240;28;20045;-77
2023/05/10 04:46:04;;;;;;;60.17;23.15;;;;;;;11.64;100.00;100545.84;5056698;28;20057;-76
2023/05/10 04:48:31;;;;;;;48.40;17.67;;;;;;;11.57;100.00;100545.19;5067632;28;20049;-76
2023/05/10 04:50:57;;;;;;;53.92;23.15;;;;;;;11.60;100.00;100549.91;5065118;28;20087;-76
2023/05/10 04:53:24;;;;;;;59.65;23.73;;;;;;;11.62;100.00;100548.25;5067919;28;20503;-75
2023/05/10 04:55:50;;;;;;;55.55;23.42;;;;;;;11.68;100.00;100552.09;5065375;28;20078;-77
2023/05/10 04:58:17;;;;;;;62.63;25.65;;;;;;;11.73;100.00;100550.81;5058991;28;20100;-75
2023/05/10 05:00:44;;;;;;;68.70;25.85;;;;;;;11.75;100.00;100562.34;5067642;28;20053;-77
2023/05/10 05:03:10;;;;;;;57.42;23.50;;;;;;;11.71;100.00;100553.25;5074556;28;20045;-77
2023/05/10 05:05:37;;;;;;;68.47;25.55;;;;;;;11.74;100.00;100555.97;5065557;28;20059;-77
2023/05/10 05:08:03;;;;;;;59.47;25.33;;;;;;;11.72;100.00;100563.19;5064604;28;20056;-77
2023/05/10 05:10:30;;;;;;;55.33;22.98;;;;;;;11.73;100.00;100559.19;5062111;28;20502;-77
2023/05/10 05:12:56;;;;;;;60.42;23.45;;;;;;;11.71;100.00;100561.59;5066465;28;20084;-76
2023/05/10 05:15:23;;;;;;;68.00;25.90;;;;;;;11.75;100.00;100563.09;5065671;28;20576;-76
2023/05/10 05:17:50;;;;;;;17.35;8.48;;;;;;;11.66;100.00;100560.13;5064886;28;20131;-77
2023/05/10 05:20:17;;;;;;;64.60;28.02;;;;;;;11.77;100.00;100565.47;5066919;28;20044;-75
2023/05/10 05:22:43;;;;;;;61.90;25.75;;;;;;;11.82;100.00;100574.09;5067858;28;20139;-76
2023/05/10 05:25:11;;;;;;;57.38;23.20;;;;;;;11.80;100.00;100573.75;5065609;28;20535;-76
2023/05/10 05:27:38;;;;;;;71.57;28.73;;;;;;;11.81;100.00;100569.75;5066420;28;20143;-75
2023/05/10 05:30:05;;;;;;;65.32;25.80;;;;;;;11.77;100.00;100571.03;5059041;28;20049;-77
2023/05/10 05:32:31;;;;;;;64.13;26.95;;;;;;;11.87;100.00;100572.81;5065544;28;20078;-75
2023/05/10 05:34:58;;;;;;;57.55;24.25;;;;;;;11.78;100.00;100570.59;5063733;28;20052;-77
2023/05/10 05:37:25;;;;;;;67.10;26.13;;;;;;;11.82;100.00;100582.44;5068356;28;20565;-77
2023/05/10 05:39:51;;;;;;;60.20;27.05;;;;;;;11.85;100.00;100578.81;5069007;28;20040;-76
2023/05/10 05:42:18;;;;;;;63.45;26.88;;;;;;;11.89;100.00;100587.88;5075458;28;20051;-76
2023/05/10 05:44:45;;;;;;;73.25;27.75;;;;;;;11.88;100.00;100588.31;5069432;28;20131;-77
2023/05/10 05:47:12;;;;;;;71.78;29.63;;;;;;;11.93;100.00;100591.41;5074002;28;20089;-76
2023/05/10 05:49:39;;;;;;;67.18;26.55;;;;;;;11.93;100.00;100582.25;5072916;28;20052;-75
2023/05/10 05:52:06;;;;;;;63.47;25.25;;;;;;;11.89;100.00;100587.09;5066676;28;20798;-77
2023/05/10 05:54:32;;;;;;;62.85;25.08;;;;;;;11.92;100.00;100589.81;5070995;28;20052;-76
2023/05/10 05:57:00;;;;;;;66.85;28.02;;;;;;;11.98;100.00;100587.28;5062058;28;20052;-77
2023/05/10 05:59:27;;;;;;;62.35;26.52;;;;;;;11.97;100.00;100596.88;5077615;28;20052;-76
2023/05/10 06:01:54;;;;;;;60.38;24.45;;;;;;;12.02;100.00;100596.41;5069979;28;20049;-76
2023/05/10 06:04:20;;;;;;;57.05;25.70;;;;;;;11.89;100.00;100606.59;5066978;28;20588;-75
2023/05/10 06:06:47;;;;;;;61.53;27.50;;;;;;;12.03;100.00;100607.09;5066831;28;20084;-75
2023/05/10 06:09:14;;;;;;;60.60;23.10;;;;;;;11.95;100.00;100605.66;5070077;28;20058;-75
2023/05/10 06:11:40;;;;;;;66.53;28.00;;;;;;;12.08;100.00;100606.59;5074791;28;20490;-76
2023/05/10 06:14:07;;;;;;;61.55;25.45;;;;;;;12.07;100.00;100607.00;5069984;28;20406;-73
2023/05/10 06:16:34;;;;;;;63.10;26.45;;;;;;;12.17;100.00;100617.94;5070219;28;20080;-74
2023/05/10 06:19:02;;;;;;;66.50;27.35;;;;;;;12.10;100.00;100609.75;5067486;28;20110;-75
2023/05/10 06:21:28;;;;;;;63.58;29.17;;;;;;;12.23;100.00;100613.41;5069196;28;20052;-74
2023/05/10 06:23:55;;;;;;;61.95;25.95;;;;;;;12.27;100.00;100624.50;5068947;28;20041;-76
2023/05/10 06:26:22;;;;;;;57.97;24.65;;;;;;;12.23;100.00;100607.84;5068780;28;20045;-76
2023/05/10 06:28:48;;;;;;;62.33;26.30;;;;;;;12.30;100.00;100627.19;5069075;28;20052;-76
2023/05/10 06:31:15;;;;;;;67.30;26.50;;;;;;;12.37;100.00;100627.09;5069196;28;20123;-75
2023/05/10 06:33:42;;;;;;;35.40;14.95;;;;;;;12.25;100.00;100635.28;5066666;28;20049;-75
2023/05/10 06:36:09;;;;;;;28.75;12.52;;;;;;;12.26;100.00;100631.31;5065159;28;20463;-75
2023/05/10 06:38:36;;;;;;;64.13;28.73;;;;;;;12.39;100.00;100635.03;5060517;28;20056;-74
2023/05/10 06:41:02;;;;;;;61.83;23.60;;;;;;;12.39;100.00;100630.22;5069325;28;20044;-74
2023/05/10 06:43:29;;;;;;;60.30;27.08;;;;;;;12.41;100.00;100633.38;5068907;28;20045;-75
2023/05/10 06:45:56;;;;;;;58.00;21.38;;;;;;;12.53;100.00;100638.28;5068964;28;20067;-74
2023/05/10 06:48:22;;;;;;;47.58;17.20;;;;;;;12.49;100.00;100645.94;5066050;28;20044;-76
2023/05/10 06:50:49;;;;;;;58.65;26.48;;;;;;;12.63;100.00;100627.31;5066706;28;20060;-76
2023/05/10 06:53:16;;;;;;;53.05;22.60;;;;;;;12.67;100.00;100634.38;5067769;28;20151;-73
2023/05/10 06:55:42;;;;;;;64.35;28.10;;;;;;;12.88;100.00;100633.09;5059198;28;20513;-75
2023/05/10 06:58:09;;;;;;;60.38;26.55;;;;;;;12.98;100.00;100634.84;5059939;28;20053;-76
2023/05/10 07:00:38;;;;;;;60.17;26.45;;;;;;;13.07;100.00;100635.03;5067017;28;20048;-76
2023/05/10 07:03:05;;;;;;;48.33;20.42;;;;;;;13.06;100.00;100644.63;5056377;28;20170;-81
2023/05/10 07:05:32;;;;;;;55.20;25.27;;;;;;;13.17;100.00;100643.16;5061030;28;20082;-78
2023/05/10 07:07:59;;;;;;;54.40;25.45;;;;;;;13.18;100.00;100636.34;5075243;28;20640;-80
2023/05/10 07:10:26;;;;;;;35.50;14.77;;;;;;;13.08;100.00;100637.38;5061308;28;20048;-79
2023/05/10 07:12:53;;;;;;;61.75;26.15;;;;;;;13.33;100.00;100631.19;5067919;28;20135;-78
2023/05/10 07:15:19;;;;;;;58.30;24.52;;;;;;;13.35;100.00;100626.72;5068604;28;20076;-78
2023/05/10 07:17:46;;;;;;;21.23;7.97;;;;;;;13.31;100.00;100644.78;5068416;28;20110;-75
2023/05/10 07:20:13;;;;;;;57.97;25.40;;;;;;;13.50;100.00;100641.13;5062575;28;20384;-74
2023/05/10 07:22:39;;;;;;;58.33;23.88;;;;;;;13.59;100.00;100644.06;5067994;28;20048;-74
2023/05/10 07:25:06;;;;;;;57.75;25.92;;;;;;;13.59;100.00;100638.47;5059701;28;20469;-75
2023/05/10 07:27:33;;;;;;;60.42;28.95;;;;;;;13.65;100.00;100637.50;5066591;28;20818;-74
2023/05/10 07:30:00;;;;;;;31.52;11.27;;;;;;;13.50;100.00;100638.34;5070500;28;20056;-74
2023/05/10 07:32:26;;;;;;;54.85;27.38;;;;;;;13.67;100.00;100631.50;5067357;28;20060;-75
2023/05/10 07:34:53;;;;;;;53.85;28.10;;;;;;;13.84;100.00;100636.56;5068202;28;20060;-75
2023/05/10 07:37:20;;;;;;;56.83;27.98;;;;;;;13.81;100.00;100628.31;5067995;28;20054;-72
2023/05/10 07:39:46;;;;;;;60.05;28.77;;;;;;;13.86;100.00;100636.94;5070030;28;20052;-73
2023/05/10 07:42:13;;;;;;;57.75;30.80;;;;;;;13.82;100.00;100629.88;5062072;28;20358;-73
2023/05/10 07:44:39;;;;;;;64.50;32.70;;;;;;;13.90;100.00;100639.59;5067032;28;20049;-74
2023/05/10 07:47:07;;;;;;;63.55;30.70;;;;;;;13.85;100.00;100643.75;5063014;28;20060;-74
2023/05/10 07:49:33;;;;;;;68.03;33.88;;;;;;;13.83;100.00;100637.81;5069395;28;20426;-74
2023/05/10 07:52:00;;;;;;;58.78;26.63;;;;;;;13.71;100.00;100643.34;5065114;28;20058;-75
2023/05/10 07:54:26;;;;;;;57.00;27.40;;;;;;;13.75;100.00;100642.03;5067499;28;20058;-74
2023/05/10 07:56:52;;;;;;;56.10;24.63;;;;;;;13.70;100.00;100642.56;5067344;28;20056;-73
2023/05/10 07:59:19;;;;;;;62.20;29.25;;;;;;;13.76;100.00;100643.59;5065361;28;20151;-74
2023/05/10 08:01:46;;;;;;;43.33;18.17;;;;;;;13.68;100.00;100641.44;5061586;28;20067;-73
2023/05/10 08:04:12;;;;;;;62.78;27.23;;;;;;;13.76;100.00;100649.19;5065782;28;20127;-74
2023/05/10 08:06:39;;;;;;;48.47;23.00;;;;;;;13.83;100.00;100646.19;5066998;28;20044;-74
2023/05/10 08:09:07;;;;;;;37.15;15.50;;;;;;;13.77;100.00;100650.75;5059139;28;20052;-72
2023/05/10 08:11:33;;;;;;;32.75;14.68;;;;;;;13.68;100.00;100658.19;5075279;28;20603;-74
2023/05/10 08:14:01;;;;;;;42.83;19.05;;;;;;;13.82;100.00;100655.81;5066668;28;20045;-74
2023/05/10 08:16:28;;;;;;;42.13;19.90;;;;;;;13.84;100.00;100655.38;5067573;28;20052;-74
2023/05/10 08:18:55;;;;;;;44.38;21.95;;;;;;;14.03;100.00;100654.41;5061352;28;20135;-73
2023/05/10 08:21:22;;;;;;;26.48;11.50;;;;;;;13.88;100.00;100656.03;5067509;28;20048;-73
2023/05/10 08:23:48;;;;;;;28.08;12.27;;;;;;;13.87;100.00;100660.06;5068331;28;20057;-73
2023/05/10 08:26:15;;;;;;;21.25;8.43;;;;;;;13.69;100.00;100660.56;5066905;28;20090;-73
2023/05/10 08:28:42;;;;;;;33.22;13.05;;;;;;;13.76;100.00;100667.94;5066721;28;20044;-73
2023/05/10 08:31:08;;;;;;;26.38;9.50;;;;;;;13.68;100.00;100669.38;5066953;28;20055;-72
2023/05/10 08:33:35;;;;;;;49.90;22.52;;;;;;;13.72;100.00;100675.63;5056960;28;20068;-72
2023/05/10 08:36:01;;;;;;;34.58;13.55;;;;;;;13.71;100.00;100679.66;5063036;28;20055;-72
2023/05/10 08:38:28;;;;;;;18.98;8.23;;;;;;;13.64;100.00;100682.66;5066959;28;20059;-75
2023/05/10 08:40:56;;;;;;;57.78;27.00;;;;;;;13.76;100.00;100688.28;5063243;28;20052;-75
2023/05/10 08:43:27;;;;;;;36.40;14.13;;;;;;;13.57;100.00;100685.63;5056649;28;20383;-74
2023/05/10 08:45:56;;;;;;;64.32;32.72;;;;;;;13.84;100.00;100692.47;5053792;28;20419;-73
2023/05/10 08:48:24;;;;;;;63.63;29.27;;;;;;;13.96;100.00;100686.16;5062698;28;20044;-72
2023/05/10 08:50:56;;;;;;;39.15;15.95;;;;;;;13.87;100.00;100699.19;5076029;28;20071;-73
2023/05/10 08:53:26;;;;;;;28.25;12.48;;;;;;;13.85;100.00;100696.84;5073723;28;20130;-70
2023/05/10 08:55:53;;;;;;;51.63;23.88;;;;;;;13.99;100.00;100702.03;5066267;28;20064;-73
2023/05/10 08:58:20;;;;;;;38.85;17.40;;;;;;;13.93;100.00;100691.81;5064532;28;20063;-72
2023/05/10 09:00:52;;;;;;;45.22;17.27;;;;;;;13.81;100.00;100703.75;5066960;28;20047;-74
2023/05/10 09:03:19;;;;;;;32.95;12.10;;;;;;;13.94;100.00;100704.59;5064335;28;20114;-74
2023/05/10 09:05:46;;;;;;;33.33;14.25;;;;;;;13.93;100.00;100697.41;5063309;28;20074;-74
2023/05/10 09:08:15;;;;;;;34.00;13.82;;;;;;;13.84;100.00;100703.63;5054464;28;20142;-76
2023/05/10 09:10:43;;;;;;;37.95;15.55;;;;;;;13.92;100.00;100707.81;5067048;28;20056;-74
2023/05/10 09:13:11;;;;;;;33.65;14.52;;;;;;;13.93;100.00;100705.78;5067897;28;20114;-74
2023/05/10 09:15:38;;;;;;;26.35;9.88;;;;;;;14.01;100.00;100712.78;5066808;28;20118;-74
2023/05/10 09:18:05;;;;;;;40.95;18.27;;;;;;;14.18;100.00;100703.13;5069111;28;20056;-74
2023/05/10 09:20:31;;;;;;;22.48;9.30;;;;;;;14.27;100.00;100703.25;5070240;28;20205;-74
2023/05/10 09:22:58;;;;;;;31.50;11.27;;;;;;;14.42;100.00;100712.84;5064646;28;20055;-74
2023/05/10 09:25:24;;;;;;;42.90;20.75;;;;;;;14.77;100.00;100712.56;5069482;28;20048;-74
2023/05/10 09:27:52;;;;;;;25.20;9.63;;;;;;;14.71;100.00;100719.94;5070525;28;20048;-76
2023/05/10 09:30:26;;;;;;;51.22;25.90;;;;;;;15.01;100.00;100704.63;5069330;28;20502;-74
2023/05/10 09:32:54;;;;;;;45.03;20.50;;;;;;;15.05;100.00;100710.88;5066445;28;20570;-74
2023/05/10 09:35:24;;;;;;;48.25;23.92;;;;;;;15.23;100.00;100701.91;5069107;28;20045;-74
2023/05/10 09:37:57;;;;;;;37.08;18.73;;;;;;;15.24;100.00;100700.69;5067974;28;20095;-74
2023/05/10 09:40:25;;;;;;;34.80;14.90;;;;;;;15.22;100.00;100703.16;5066842;28;20052;-74
2023/05/10 09:42:55;;;;;;;30.75;14.95;;;;;;;15.35;100.00;100695.53;5067451;28;20054;-74
2023/05/10 09:45:25;;;;;;;34.13;15.38;;;;;;;15.51;100.00;100710.19;5064254;28;20414;-73
2023/05/10 09:47:53;;;;;;;33.92;14.35;;;;;;;15.56;100.00;100704.00;5069979;28;20058;-73
2023/05/10 09:50:20;;;;;;;15.77;5.75;;;;;;;15.27;100.00;100708.97;5070245;28;20098;-74
2023/05/10 09:52:53;;;;;;;27.23;12.40;;;;;;;15.31;100.00;100700.44;5069392;28;20124;-74
2023/05/10 09:55:25;;;;;;;13.43;6.00;;;;;;;15.28;100.00;100713.34;5062864;28;20088;-73
2023/05/10 09:58:01;;;;;;;21.27;6.55;;;;;;;15.17;100.00;100715.72;5066525;28;20139;-74
2023/05/10 10:00:34;;;;;;;22.13;8.13;;;;;;;15.01;100.00;100724.22;5069380;28;20049;-73
2023/05/10 10:03:01;;;;;;;26.17;10.88;;;;;;;14.86;100.00;100720.31;5066128;28;20137;-75
2023/05/10 10:05:28;;;;;;;36.72;17.30;;;;;;;14.92;100.00;100724.09;5066308;28;20080;-73
2023/05/10 10:07:57;;;;;;;25.23;8.02;;;;;;;14.72;100.00;100727.09;5069925;28;20079;-73
2023/05/10 10:10:25;;;;;;;13.45;6.63;;;;;;;14.61;100.00;100728.63;5064196;28;20538;-74
2023/05/10 10:12:52;;;;;;;35.25;15.20;;;;;;;14.68;100.00;100722.84;5064418;28;20133;-72
2023/05/10 10:15:20;;;;;;;37.95;19.50;;;;;;;14.71;100.00;100719.16;5065408;28;20053;-74
2023/05/10 10:17:49;;;;;;;39.42;19.35;;;;;;;14.69;100.00;100724.41;5067210;28;20049;-74
2023/05/10 10:20:16;;;;;;;34.47;16.30;;;;;;;14.70;100.00;100729.56;5061768;28;20053;-74
2023/05/10 10:22:43;;;;;;;31.42;12.30;;;;;;;14.56;100.00;100727.16;5056517;28;20048;-73
2023/05/10 10:25:12;;;;;;;41.65;19.42;;;;;;;14.65;100.00;100732.91;5055305;28;20040;-73
2023/05/10 10:28:00;;;;;;;43.47;17.75;;;;;;;14.56;100.00;100732.75;5057609;28;20055;-75
2023/05/10 10:30:34;;;;;;;37.33;16.88;;;;;;;14.52;100.00;100729.28;5064880;28;20057;-74
2023/05/10 10:33:24;;;;;;;27.05;11.55;;;;;;;14.64;100.00;100741.75;5062791;28;20048;-73
2023/05/10 10:35:57;;;;;;;28.15;12.90;;;;;;;14.51;100.00;100738.13;5059843;28;21931;-72
2023/05/10 10:38:24;;;;;;;27.98;10.25;;;;;;;14.51;100.00;100738.13;5057685;28;20055;-74
2023/05/10 10:41:10;;;;;;;28.52;12.82;;;;;;;14.36;100.00;100734.94;5064855;28;20074;-75
2023/05/10 10:43:37;;;;;;;36.60;17.85;;;;;;;14.62;100.00;100736.59;5064422;28;20625;-74
2023/05/10 10:46:17;;;;;;;23.38;10.18;;;;;;;14.62;100.00;100738.63;5065557;28;20609;-74
2023/05/10 10:48:49;;;;;;;25.83;8.73;;;;;;;14.51;100.00;100743.72;5055386;28;20048;-73
2023/05/10 10:51:16;;;;;;;13.88;5.10;;;;;;;14.57;100.00;100737.16;5056689;28;20167;-72
2023/05/10 10:53:43;;;;;;;18.95;7.63;;;;;;;14.58;100.00;100744.31;5055503;28;20059;-74
2023/05/10 10:56:14;;;;;;;24.73;10.13;;;;;;;14.74;100.00;100752.63;5061107;28;20056;-73
2023/05/10 10:58:41;;;;;;;33.78;15.23;;;;;;;14.93;100.00;100748.06;5057126;28;20131;-72
2023/05/10 11:01:18;;;;;;;22.83;9.80;;;;;;;14.84;100.00;100751.53;5056842;28;20060;-73
2023/05/10 11:04:08;;;;;;;32.75;15.38;;;;;;;14.76;100.00;100750.16;5057668;28;20131;-75
2023/05/10 11:06:35;;;;;;;22.88;8.75;;;;;;;14.48;100.00;100751.00;5057020;28;20510;-74
2023/05/10 11:09:07;;;;;;;21.27;8.60;;;;;;;14.32;100.00;100759.41;5060873;28;20059;-74
2023/05/10 11:11:35;;;;;;;28.48;10.10;;;;;;;14.27;100.00;100764.75;5057912;28;20411;-74
2023/05/10 11:14:07;;;;;;;34.90;17.20;;;;;;;14.39;100.00;100767.59;5057009;28;20123;-72